TEY weather

Þingeyri Airport
Þingeyri, Westfjords, Iceland

Public forecast

Using degrees Celsius for public forecast. Weather courtesy of forecast.io.

Closest aviation weather report (METAR) to Þingeyri Airport

Closest report is Bildudalur Airport, 13.8 nm (25.5 km) S. Retrieved 2019/12/12 13:00 UTC (23 minutes ago):

BIBD 121300Z 02010KT 9999 SCT030 M03/M08 Q0992

Closest aviation forecast (TAF) to Þingeyri Airport

Closest forecast is Reykjavik Airport, 112.3 nm (207.9 km) SSE. Retrieved 2019/12/12 15:57 UTC (0 seconds ago):

TAF BIRK 121356Z 1215/1315 03018KT CAVOK TXM01/1215Z TNM09/1309Z BECMG 1222/1300 09008KT